Time;durP1;ratioP1;P1;durP2;ratioP2;P2;SDS_P1;SDS_P2;PMS_P1;PMS_P2;Temp;Humidity;BMP_temperature;BMP_pressure;BME280_temperature;BME280_humidity;BME280_pressure;Samples;Min_cycle;Max_cycle;Signal;HPM_P1;HPM_P2
2021/01/15 00:01:26;;;;;;;;;;;;;;;-0.27;100.00;100763.78;5115380;28;20010;-76
2021/01/15 00:03:53;;;;;;;;;;;;;;;-0.29;100.00;100762.47;5114537;28;19924;-76
2021/01/15 00:06:23;;;;;;;;;;;;;;;-0.33;100.00;100772.44;5115824;28;19924;-76
2021/01/15 00:08:50;;;;;;;;;;;;;;;-0.31;100.00;100771.03;5116019;27;20417;-76
2021/01/15 00:11:21;;;;;;;;;;;;;;;-0.25;100.00;100782.72;5115792;28;19928;-76
2021/01/15 00:13:48;;;;;;;;;;;;;;;-0.45;100.00;100783.16;5115743;28;20306;-77
2021/01/15 00:16:33;;;;;;;;;;;;;;;-0.56;100.00;100781.78;5115666;28;20050;-76
2021/01/15 00:19:00;;;;;;;;;;;;;;;-0.65;100.00;100780.91;5114551;28;19931;-76
2021/01/15 00:21:27;;;;;;;;;;;;;;;-0.70;100.00;100786.50;5097492;28;19946;-76
2021/01/15 00:23:55;;;;;;;;;;;;;;;-0.76;100.00;100790.47;5115584;28;19924;-76
2021/01/15 00:26:23;;;;;;;;;;;;;;;-0.85;100.00;100800.53;5115702;28;19928;-77
2021/01/15 00:28:50;;;;;;;;;;;;;;;-0.95;100.00;100798.81;5114531;28;19923;-77
2021/01/15 00:31:16;;;;;;;;;;;;;;;-1.03;100.00;100807.75;5114326;28;19959;-76
2021/01/15 00:33:43;;;;;;;;;;;;;;;-1.03;100.00;100820.69;5114016;28;20320;-76
2021/01/15 00:36:10;;;;;;;;;;;;;;;-1.12;100.00;100817.81;5115381;28;20382;-75
2021/01/15 00:38:37;;;;;;;;;;;;;;;-1.17;100.00;100811.63;5115483;28;20370;-76
2021/01/15 00:41:05;;;;;;;;;;;;;;;-1.22;100.00;100822.69;5114226;28;20290;-75
2021/01/15 00:43:32;;;;;;;;;;;;;;;-1.15;100.00;100812.16;5115352;28;20299;-77
2021/01/15 00:45:59;;;;;;;;;;;;;;;-1.18;100.00;100812.75;5114010;28;20006;-75
2021/01/15 00:48:25;;;;;;;;;;;;;;;-1.33;100.00;100810.31;5114767;28;19924;-76
2021/01/15 00:50:52;;;;;;;;;;;;;;;-1.32;100.00;100812.75;5113880;28;20463;-75
2021/01/15 00:53:19;;;;;;;;;;;;;;;-1.54;100.00;100825.47;5113972;28;19924;-76
2021/01/15 00:55:49;;;;;;;;;;;;;;;-1.85;100.00;100825.22;5113753;28;19931;-76
2021/01/15 00:58:15;;;;;;;;;;;;;;;-1.98;100.00;100825.97;5113811;28;19969;-76
2021/01/15 01:00:42;;;;;;;;;;;;;;;-2.01;100.00;100838.34;5110908;28;19961;-76
2021/01/15 01:03:20;;;;;;;;;;;;;;;-2.01;100.00;100845.72;5111988;28;19924;-76
2021/01/15 01:05:46;;;;;;;;;;;;;;;-2.15;100.00;100855.84;5114664;28;19924;-76
2021/01/15 01:08:13;;;;;;;;;;;;;;;-2.11;100.00;100859.59;5114828;28;19931;-76
2021/01/15 01:10:40;;;;;;;;;;;;;;;-2.06;100.00;100860.31;5114735;28;20400;-76
2021/01/15 01:13:07;;;;;;;;;;;;;;;-1.93;100.00;100873.28;5113393;28;20294;-76
2021/01/15 01:15:33;;;;;;;;;;;;;;;-1.82;100.00;100869.25;5113239;28;19931;-76
2021/01/15 01:17:59;;;;;;;;;;;;;;;-1.83;100.00;100875.03;5114278;28;19923;-76
2021/01/15 01:20:26;;;;;;;;;;;;;;;-1.85;100.00;100880.81;5114570;28;20352;-76
2021/01/15 01:22:53;;;;;;;;;;;;;;;-1.71;100.00;100885.56;5113356;28;20396;-76
2021/01/15 01:25:19;;;;;;;;;;;;;;;-1.79;100.00;100888.97;5114419;28;19924;-76
2021/01/15 01:27:46;;;;;;;;;;;;;;;-1.76;100.00;100893.84;5114477;28;20414;-76
2021/01/15 01:30:14;;;;;;;;;;;;;;;-1.89;100.00;100885.28;5114345;28;19924;-76
2021/01/15 01:32:41;;;;;;;;;;;;;;;-1.99;100.00;100896.41;5096026;28;20010;-76
2021/01/15 01:35:08;;;;;;;;;;;;;;;-2.10;100.00;100892.16;5112896;28;19930;-76
2021/01/15 01:37:34;;;;;;;;;;;;;;;-2.15;100.00;100900.44;5114348;28;19924;-76
2021/01/15 01:40:01;;;;;;;;;;;;;;;-2.21;100.00;100907.09;5114248;28;20443;-76
2021/01/15 01:42:27;;;;;;;;;;;;;;;-2.23;100.00;100922.22;5114241;28;20120;-76
2021/01/15 01:44:54;;;;;;;;;;;;;;;-2.23;100.00;100917.53;5114017;28;19923;-76
2021/01/15 01:47:20;;;;;;;;;;;;;;;-2.35;100.00;100919.88;5113806;28;20055;-76
2021/01/15 01:49:47;;;;;;;;;;;;;;;-2.43;100.00;100927.94;5114112;28;19931;-76
2021/01/15 01:52:14;;;;;;;;;;;;;;;-2.45;100.00;100925.50;5113993;28;19931;-76
2021/01/15 01:54:41;;;;;;;;;;;;;;;-2.44;100.00;100932.59;5112576;28;19924;-76
2021/01/15 01:57:08;;;;;;;;;;;;;;;-2.40;100.00;100944.63;5112613;28;20006;-77
2021/01/15 01:59:35;;;;;;;;;;;;;;;-2.45;100.00;100952.88;5113333;28;20401;-77
2021/01/15 02:02:01;;;;;;;;;;;;;;;-2.46;100.00;100956.75;5112518;28;19968;-76
2021/01/15 02:04:28;;;;;;;;;;;;;;;-2.52;100.00;100949.69;5112556;28;20404;-76
2021/01/15 02:06:55;;;;;;;;;;;;;;;-2.54;100.00;100965.59;5113739;28;19924;-76
2021/01/15 02:09:25;;;;;;;;;;;;;;;-2.59;100.00;100976.59;5113747;28;19971;-76
2021/01/15 02:11:52;;;;;;;;;;;;;;;-2.61;100.00;100989.75;5113672;28;20420;-76
2021/01/15 02:14:20;;;;;;;;;;;;;;;-2.78;100.00;100986.66;5112213;28;19931;-76
2021/01/15 02:16:50;;;;;;;;;;;;;;;-2.88;100.00;100996.91;5113469;28;19939;-76
2021/01/15 02:19:29;;;;;;;;;;;;;;;-3.00;100.00;101002.72;5095703;28;20370;-76
2021/01/15 02:22:14;;;;;;;;;;;;;;;-2.96;100.00;101006.53;5113680;28;19992;-76
2021/01/15 02:24:52;;;;;;;;;;;;;;;-3.03;100.00;101011.50;5113580;28;20011;-76
2021/01/15 02:27:33;;;;;;;;;;;;;;;-3.03;100.00;101016.19;5112363;28;19927;-76
2021/01/15 02:30:06;;;;;;;;;;;;;;;-3.09;100.00;101029.06;5113508;28;19979;-76
2021/01/15 02:32:59;;;;;;;;;;;;;;;-3.07;100.00;101037.00;5113548;28;19931;-76
2021/01/15 02:35:25;;;;;;;;;;;;;;;-3.08;100.00;101052.59;5111284;28;19924;-76
2021/01/15 02:38:04;;;;;;;;;;;;;;;-3.00;100.00;101057.44;5112743;28;19967;-76
2021/01/15 02:40:50;;;;;;;;;;;;;;;-3.09;100.00;101061.88;5094946;28;19927;-76
2021/01/15 02:43:17;;;;;;;;;;;;;;;-3.19;100.00;101077.56;5112704;28;20014;-76
2021/01/15 02:45:44;;;;;;;;;;;;;;;-3.24;100.00;101086.63;5094378;28;20026;-76
2021/01/15 02:48:15;;;;;;;;;;;;;;;-3.25;100.00;101098.66;5111460;28;19924;-76
2021/01/15 02:50:45;;;;;;;;;;;;;;;-3.26;100.00;101099.78;5111593;28;19930;-76
2021/01/15 02:53:14;;;;;;;;;;;;;;;-3.29;100.00;101104.97;5113152;28;20132;-76
2021/01/15 02:55:40;;;;;;;;;;;;;;;-3.33;100.00;101103.94;5111417;28;19924;-76
2021/01/15 02:58:07;;;;;;;;;;;;;;;-3.36;100.00;101108.03;5113192;28;20384;-76
2021/01/15 03:00:33;;;;;;;;;;;;;;;-3.40;100.00;101111.59;5112950;28;19977;-76
2021/01/15 03:03:03;;;;;;;;;;;;;;;-3.40;100.00;101112.44;5111968;28;19924;-76
2021/01/15 03:05:41;;;;;;;;;;;;;;;-3.39;100.00;101127.72;5113283;28;19924;-76
2021/01/15 03:08:08;;;;;;;;;;;;;;;-3.36;100.00;101132.63;5113061;28;19932;-76
2021/01/15 03:10:36;;;;;;;;;;;;;;;-3.38;100.00;101134.84;5112432;28;19935;-76
2021/01/15 03:13:03;;;;;;;;;;;;;;;-3.41;100.00;101149.06;5116342;28;19924;-76
2021/01/15 03:15:31;;;;;;;;;;;;;;;-3.42;100.00;101150.16;5117741;28;19924;-76
2021/01/15 03:17:57;;;;;;;;;;;;;;;-3.48;100.00;101156.75;5117902;28;19923;-76
2021/01/15 03:20:25;;;;;;;;;;;;;;;-3.42;100.00;101166.56;5117898;28;19931;-76
2021/01/15 03:22:52;;;;;;;;;;;;;;;-3.49;100.00;101177.00;5117720;28;19931;-76
2021/01/15 03:25:20;;;;;;;;;;;;;;;-3.63;100.00;101195.06;5117743;28;19931;-76
2021/01/15 03:27:53;;;;;;;;;;;;;;;-3.69;100.00;101207.13;5117413;28;19931;-76
2021/01/15 03:30:21;;;;;;;;;;;;;;;-3.73;100.00;101212.31;5099792;28;19923;-76
2021/01/15 03:32:49;;;;;;;;;;;;;;;-3.74;100.00;101223.53;5117596;28;19927;-76
2021/01/15 03:35:25;;;;;;;;;;;;;;;-3.76;100.00;101225.72;5117494;28;20258;-76
2021/01/15 03:38:06;;;;;;;;;;;;;;;-3.72;100.00;101232.28;5116534;28;19930;-76
2021/01/15 03:40:33;;;;;;;;;;;;;;;-3.66;100.00;101244.81;5117582;28;19930;-76
2021/01/15 03:43:00;;;;;;;;;;;;;;;-3.56;100.00;101254.91;5117196;28;19931;-76
2021/01/15 03:45:28;;;;;;;;;;;;;;;-3.62;100.00;101258.75;5116227;28;19971;-75
2021/01/15 03:47:54;;;;;;;;;;;;;;;-3.87;100.00;101265.09;5117380;28;19924;-76
2021/01/15 03:50:21;;;;;;;;;;;;;;;-3.95;100.00;101271.09;5116125;28;19924;-75
2021/01/15 03:52:48;;;;;;;;;;;;;;;-4.01;100.00;101272.19;5115874;28;20030;-76
2021/01/15 03:55:15;;;;;;;;;;;;;;;-4.04;100.00;101286.41;5117067;28;19924;-76
2021/01/15 03:57:42;;;;;;;;;;;;;;;-4.10;100.00;101293.78;5116821;28;19923;-76
2021/01/15 04:00:09;;;;;;;;;;;;;;;-4.15;100.00;101298.44;5117069;28;19923;-76
2021/01/15 04:02:36;;;;;;;;;;;;;;;-4.14;100.00;101302.81;5116955;28;20027;-76
2021/01/15 04:05:03;;;;;;;;;;;;;;;-4.11;100.00;101310.44;5116914;28;20018;-76
2021/01/15 04:07:31;;;;;;;;;;;;;;;-4.09;100.00;101320.00;5115410;28;19923;-76
2021/01/15 04:09:58;;;;;;;;;;;;;;;-4.12;100.00;101322.47;5116890;28;19931;-76
2021/01/15 04:12:25;;;;;;;;;;;;;;;-4.16;100.00;101329.53;5115146;28;19930;-76
2021/01/15 04:14:51;;;;;;;;;;;;;;;-4.08;100.00;101329.00;5116768;28;19931;-76
2021/01/15 04:17:18;;;;;;;;;;;;;;;-4.12;100.00;101347.84;5116979;28;19924;-76
2021/01/15 04:19:44;;;;;;;;;;;;;;;-4.07;100.00;101352.50;5116591;28;19924;-76
2021/01/15 04:22:10;;;;;;;;;;;;;;;-4.12;100.00;101364.22;5116104;28;19923;-75
2021/01/15 04:24:38;;;;;;;;;;;;;;;-4.12;100.00;101374.34;5116448;28;20155;-76
2021/01/15 04:27:04;;;;;;;;;;;;;;;-4.06;100.00;101386.91;5116086;28;19924;-75
2021/01/15 04:29:31;;;;;;;;;;;;;;;-4.25;100.00;101399.44;5116149;28;19924;-75
2021/01/15 04:31:57;;;;;;;;;;;;;;;-4.44;100.00;101410.03;5114929;28;20315;-75
2021/01/15 04:34:24;;;;;;;;;;;;;;;-4.51;100.00;101433.19;5116062;28;20271;-75
2021/01/15 04:36:50;;;;;;;;;;;;;;;-4.60;100.00;101434.78;5116061;28;20301;-75
2021/01/15 04:39:19;;;;;;;;;;;;;;;-4.60;100.00;101448.44;5114754;28;19949;-75
2021/01/15 04:41:50;;;;;;;;;;;;;;;-4.59;100.00;101450.09;5096790;28;19950;-75
2021/01/15 04:44:17;;;;;;;;;;;;;;;-4.60;100.00;101451.16;5115182;28;20019;-75
2021/01/15 04:46:44;;;;;;;;;;;;;;;-4.61;100.00;101453.09;5115219;28;19931;-75
2021/01/15 04:49:11;;;;;;;;;;;;;;;-4.61;100.00;101455.00;5115230;28;19924;-75
2021/01/15 04:51:39;;;;;;;;;;;;;;;-4.57;100.00;101458.81;5115290;28;19928;-75
2021/01/15 04:54:13;;;;;;;;;;;;;;;-4.63;100.00;101465.34;5115061;28;20366;-75
2021/01/15 04:56:50;;;;;;;;;;;;;;;-4.67;100.00;101480.63;5114660;28;19923;-75
2021/01/15 04:59:18;;;;;;;;;;;;;;;-4.75;100.00;101494.75;5115048;28;20378;-75
2021/01/15 05:01:45;;;;;;;;;;;;;;;-4.82;100.00;101505.91;5115146;28;20430;-75
2021/01/15 05:04:18;;;;;;;;;;;;;;;-4.81;100.00;101512.16;5113710;28;19930;-75
2021/01/15 05:06:48;;;;;;;;;;;;;;;-4.84;100.00;101513.53;5114929;28;19924;-75
2021/01/15 05:09:21;;;;;;;;;;;;;;;-4.80;100.00;101524.75;5097046;28;19924;-76
2021/01/15 05:11:48;;;;;;;;;;;;;;;-4.78;100.00;101528.84;5114784;28;19969;-76
2021/01/15 05:14:15;;;;;;;;;;;;;;;-4.71;100.00;101534.06;5114632;28;19924;-76
2021/01/15 05:16:43;;;;;;;;;;;;;;;-4.71;100.00;101545.00;5113324;28;19931;-76
2021/01/15 05:19:12;;;;;;;;;;;;;;;-4.74;100.00;101540.06;5114696;28;20294;-75
2021/01/15 05:21:39;;;;;;;;;;;;;;;-4.77;100.00;101546.84;5114430;28;20375;-76
2021/01/15 05:24:06;;;;;;;;;;;;;;;-4.73;100.00;101552.59;5114579;28;19923;-76
2021/01/15 05:26:39;;;;;;;;;;;;;;;-4.66;100.00;101551.28;5096609;28;19924;-75
2021/01/15 05:29:09;;;;;;;;;;;;;;;-4.68;100.00;101558.09;5114465;28;20366;-75
2021/01/15 05:31:54;;;;;;;;;;;;;;;-4.69;100.00;101561.91;5108784;28;19924;-75
2021/01/15 05:34:22;;;;;;;;;;;;;;;-4.73;100.00;101558.06;5113600;28;20437;-75
2021/01/15 05:36:49;;;;;;;;;;;;;;;-4.65;100.00;101560.31;5114214;28;19973;-75
2021/01/15 05:39:19;;;;;;;;;;;;;;;-4.82;100.00;101576.00;5114015;28;19923;-75
2021/01/15 05:41:47;;;;;;;;;;;;;;;-4.93;100.00;101580.56;5113050;28;19930;-75
2021/01/15 05:44:25;;;;;;;;;;;;;;;-4.97;100.00;101584.06;5114105;28;19924;-75
2021/01/15 05:46:52;;;;;;;;;;;;;;;-5.03;100.00;101588.69;5114184;28;19924;-75
2021/01/15 05:49:19;;;;;;;;;;;;;;;-5.05;100.00;101588.09;5114005;28;19981;-75
2021/01/15 05:51:45;;;;;;;;;;;;;;;-5.13;100.00;101585.03;5113973;28;20474;-75
2021/01/15 05:54:26;;;;;;;;;;;;;;;-5.11;100.00;101599.22;5112399;28;19931;-75
2021/01/15 05:56:53;;;;;;;;;;;;;;;-5.01;100.00;101600.13;5112638;28;19930;-75
2021/01/15 05:59:20;;;;;;;;;;;;;;;-4.96;100.00;101612.97;5114158;28;20340;-75
2021/01/15 06:02:19;;;;;;;;;;;;;;;-5.02;100.00;101614.84;5112633;28;20175;-75
2021/01/15 06:04:45;;;;;;;;;;;;;;;-5.07;100.00;101611.28;5062554;28;19924;-75
2021/01/15 06:07:12;;;;;;;;;;;;;;;-5.14;100.00;101611.47;5113574;28;20167;-75
2021/01/15 06:09:40;;;;;;;;;;;;;;;-5.21;100.00;101616.31;5112482;28;20016;-75
2021/01/15 06:12:08;;;;;;;;;;;;;;;-5.10;100.00;101628.94;5112173;28;19924;-75
2021/01/15 06:14:49;;;;;;;;;;;;;;;-5.08;100.00;101625.97;5113897;28;19924;-75
2021/01/15 06:17:16;;;;;;;;;;;;;;;-5.04;100.00;101632.56;5113749;28;19931;-75
2021/01/15 06:19:46;;;;;;;;;;;;;;;-5.12;100.00;101633.03;5113735;28;19931;-75
2021/01/15 06:22:32;;;;;;;;;;;;;;;-5.12;100.00;101631.13;5113299;28;19981;-75
2021/01/15 06:25:06;;;;;;;;;;;;;;;-5.15;100.00;101639.00;5106489;28;20019;-75
2021/01/15 06:27:35;;;;;;;;;;;;;;;-5.25;100.00;101637.00;5112351;28;19924;-75
2021/01/15 06:30:02;;;;;;;;;;;;;;;-5.30;100.00;101641.59;5112284;28;19935;-75
2021/01/15 06:32:29;;;;;;;;;;;;;;;-5.23;100.00;101639.47;5113547;28;19934;-75
2021/01/15 06:34:55;;;;;;;;;;;;;;;-5.25;100.00;101653.34;5112517;28;19977;-75
2021/01/15 06:37:22;;;;;;;;;;;;;;;-5.30;100.00;101655.22;5113156;28;20026;-75
2021/01/15 06:40:00;;;;;;;;;;;;;;;-5.30;100.00;101666.13;5113436;28;20275;-75
2021/01/15 06:42:30;;;;;;;;;;;;;;;-5.22;100.00;101660.16;5113429;28;20370;-75
2021/01/15 06:44:57;;;;;;;;;;;;;;;-5.19;100.00;101659.66;5113886;28;20385;-75
2021/01/15 06:47:27;;;;;;;;;;;;;;;-5.32;100.00;101660.09;5117595;28;19931;-75
2021/01/15 06:49:57;;;;;;;;;;;;;;;-5.42;100.00;101654.53;5117757;28;19931;-74
2021/01/15 06:52:25;;;;;;;;;;;;;;;-5.49;100.00;101656.63;5117260;28;20481;-81
2021/01/15 06:54:53;;;;;;;;;;;;;;;-5.46;100.00;101647.94;5117763;28;19924;-74
2021/01/15 06:57:25;;;;;;;;;;;;;;;-5.50;100.00;101660.44;5108169;28;19951;-74
2021/01/15 06:59:54;;;;;;;;;;;;;;;-5.53;100.00;101662.56;5106733;28;19923;-74
2021/01/15 07:02:30;;;;;;;;;;;;;;;-5.53;100.00;101663.66;5109733;28;19924;-74
2021/01/15 07:05:01;;;;;;;;;;;;;;;-5.55;100.00;101661.19;5111682;28;19928;-74
2021/01/15 07:07:28;;;;;;;;;;;;;;;-5.69;100.00;101659.94;5112019;28;19985;-73
2021/01/15 07:09:55;;;;;;;;;;;;;;;-5.74;100.00;101657.97;5076902;28;19931;-74
2021/01/15 07:12:23;;;;;;;;;;;;;;;-5.75;100.00;101664.50;5111168;28;20031;-75
2021/01/15 07:14:57;;;;;;;;;;;;;;;-5.76;100.00;101668.31;5111507;28;20393;-75
2021/01/15 07:17:30;;;;;;;;;;;;;;;-5.73;100.00;101675.97;5112047;27;19924;-74
2021/01/15 07:20:06;;;;;;;;;;;;;;;-5.75;100.00;101675.41;5110548;28;19924;-74
2021/01/15 07:22:43;;;;;;;;;;;;;;;-5.81;100.00;101687.31;5111268;28;20083;-74
2021/01/15 07:25:12;;;;;;;;;;;;;;;-5.78;100.00;101692.25;5112912;28;20014;-74
2021/01/15 07:27:39;;;;;;;;;;;;;;;-5.84;100.00;101700.63;5110696;28;19932;-73
2021/01/15 07:30:12;;;;;;;;;;;;;;;-5.89;100.00;101704.13;5112778;28;19973;-74
2021/01/15 07:32:39;;;;;;;;;;;;;;;-5.85;100.00;101707.16;5116095;28;19928;-76
2021/01/15 07:35:13;;;;;;;;;;;;;;;-5.90;100.00;101709.81;5115000;28;19961;-75
2021/01/15 07:37:40;;;;;;;;;;;;;;;-5.91;100.00;101703.53;5115460;28;19923;-76
2021/01/15 07:40:08;;;;;;;;;;;;;;;-5.91;100.00;101702.72;5116595;28;19924;-75
2021/01/15 07:42:40;;;;;;;;;;;;;;;-5.84;100.00;101692.47;5116616;28;20344;-73
2021/01/15 07:45:06;;;;;;;;;;;;;;;-5.75;100.00;101697.19;5116428;28;19930;-74
2021/01/15 07:47:37;;;;;;;;;;;;;;;-5.76;100.00;101702.91;5115169;28;20378;-74
2021/01/15 07:50:07;;;;;;;;;;;;;;;-5.81;100.00;101700.94;5116147;28;20425;-74
2021/01/15 07:52:37;;;;;;;;;;;;;;;-5.77;100.00;101699.34;5115374;28;19924;-74
2021/01/15 07:55:04;;;;;;;;;;;;;;;-5.79;100.00;101706.13;5116361;28;19992;-74
2021/01/15 07:57:32;;;;;;;;;;;;;;;-5.84;100.00;101698.75;5115420;28;19923;-74
2021/01/15 08:00:17;;;;;;;;;;;;;;;-5.82;100.00;101702.06;5116237;28;19935;-74
2021/01/15 08:02:43;;;;;;;;;;;;;;;-5.79;100.00;101706.97;5115174;28;20051;-74
2021/01/15 08:05:10;;;;;;;;;;;;;;;-5.84;100.00;101714.25;5115857;28;20298;-74
2021/01/15 08:07:36;;;;;;;;;;;;;;;-5.86;100.00;101711.78;5116133;28;20014;-74
2021/01/15 08:10:09;;;;;;;;;;;;;;;-5.90;100.00;101710.66;5116026;28;20081;-74
2021/01/15 08:12:36;;;;;;;;;;;;;;;-5.94;100.00;101709.47;5115688;28;19945;-74
2021/01/15 08:15:03;;;;;;;;;;;;;;;-6.01;100.00;101708.84;5115891;28;20379;-75
2021/01/15 08:17:30;;;;;;;;;;;;;;;-6.08;100.00;101702.78;5114595;28;19924;-74
2021/01/15 08:19:58;;;;;;;;;;;;;;;-6.00;100.00;101715.94;5115533;28;19955;-74
2021/01/15 08:22:24;;;;;;;;;;;;;;;-5.98;100.00;101730.13;5114629;28;20028;-74
2021/01/15 08:24:50;;;;;;;;;;;;;;;-6.06;100.00;101714.22;5115674;28;19928;-74
2021/01/15 08:27:21;;;;;;;;;;;;;;;-5.89;100.00;101723.19;5115655;27;19924;-74
2021/01/15 08:29:48;;;;;;;;;;;;;;;-5.82;100.00;101721.13;5114409;28;19958;-74
2021/01/15 08:32:15;;;;;;;;;;;;;;;-5.72;100.00;101718.47;5115391;28;20271;-74
2021/01/15 08:34:41;;;;;;;;;;;;;;;-5.81;100.00;101727.34;5115526;28;20439;-74
2021/01/15 08:37:12;;;;;;;;;;;;;;;-5.83;100.00;101733.06;5115448;28;20383;-74
2021/01/15 08:39:42;;;;;;;;;;;;;;;-5.86;100.00;101741.75;5115500;28;19924;-74
2021/01/15 08:42:09;;;;;;;;;;;;;;;-5.80;100.00;101748.88;5115467;28;19963;-74
2021/01/15 08:44:37;;;;;;;;;;;;;;;-5.87;100.00;101748.25;5115335;28;20378;-73
2021/01/15 08:47:04;;;;;;;;;;;;;;;-5.89;100.00;101753.13;5096959;28;19928;-75
2021/01/15 08:49:30;;;;;;;;;;;;;;;-5.84;100.00;101769.56;5115320;28;20353;-74
2021/01/15 08:51:58;;;;;;;;;;;;;;;-5.73;100.00;101760.44;5114572;28;19923;-74
2021/01/15 08:54:27;;;;;;;;;;;;;;;-5.59;100.00;101756.22;5113909;28;19928;-74
2021/01/15 08:56:53;;;;;;;;;;;;;;;-5.75;100.00;101748.94;5113730;28;19924;-75
2021/01/15 08:59:30;;;;;;;;;;;;;;;-5.68;100.00;101741.41;5113738;28;20379;-75
2021/01/15 09:01:57;;;;;;;;;;;;;;;-5.63;100.00;101727.03;5114484;28;19930;-75
2021/01/15 09:04:28;;;;;;;;;;;;;;;-5.41;100.00;101746.09;5114927;28;19930;-75
2021/01/15 09:07:00;;;;;;;;;;;;;;;-5.28;100.00;101746.53;5114618;28;19927;-75
2021/01/15 09:09:28;;;;;;;;;;;;;;;-5.31;100.00;101749.78;5115592;28;19931;-75
2021/01/15 09:11:54;;;;;;;;;;;;;;;-5.41;100.00;101729.75;5114424;28;20028;-75
2021/01/15 09:14:22;;;;;;;;;;;;;;;-5.38;100.00;101729.25;5115076;28;19923;-75
2021/01/15 09:16:50;;;;;;;;;;;;;;;-5.19;100.00;101716.91;5115078;27;19924;-75
2021/01/15 09:19:17;;;;;;;;;;;;;;;-5.18;100.00;101721.31;5115325;28;19931;-75
2021/01/15 09:21:48;;;;;;;;;;;;;;;-5.27;100.00;101692.84;5114299;28;19968;-74
2021/01/15 09:24:15;;;;;;;;;;;;;;;-5.46;100.00;101672.47;5115239;28;20468;-75
2021/01/15 09:26:42;;;;;;;;;;;;;;;-5.57;100.00;101649.72;5115262;28;19923;-75
2021/01/15 09:29:09;;;;;;;;;;;;;;;-5.56;100.00;101615.97;5113891;28;20396;-75
2021/01/15 09:31:40;;;;;;;;;;;;;;;-5.36;100.00;101596.28;5114901;28;19927;-74
2021/01/15 09:34:10;;;;;;;;;;;;;;;-5.26;100.00;101580.84;5115073;28;19931;-75
2021/01/15 09:36:39;;;;;;;;;;;;;;;-5.09;100.00;101558.91;5113999;28;20004;-74
2021/01/15 09:39:06;;;;;;;;;;;;;;;-4.91;100.00;101540.22;5080043;28;19924;-74
2021/01/15 09:41:32;;;;;;;;;;;;;;;-4.96;100.00;101499.28;5105210;28;19996;-75
2021/01/15 09:43:59;;;;;;;;;;;;;;;-4.84;100.00;101477.25;5110301;28;19962;-74
2021/01/15 09:46:29;;;;;;;;;;;;;;;-4.70;100.00;101457.44;5108258;28;19945;-74
2021/01/15 09:48:56;;;;;;;;;;;;;;;-4.58;100.00;101435.38;5109512;28;19973;-74
2021/01/15 09:51:25;;;;;;;;;;;;;;;-4.53;100.00;101411.63;5107711;28;20476;-74
2021/01/15 09:53:52;;;;;;;;;;;;;;;-4.51;100.00;101384.06;5110261;28;19955;-75
2021/01/15 09:56:46;;;;;;;;;;;;;;;-4.61;100.00;101349.41;5109284;28;20278;-73
2021/01/15 09:59:15;;;;;;;;;;;;;;;-4.41;100.00;101354.09;5108543;28;19924;-73
2021/01/15 10:01:42;;;;;;;;;;;;;;;-4.04;100.00;101376.53;5110121;28;19928;-74
2021/01/15 10:04:08;;;;;;;;;;;;;;;-3.98;100.00;101348.13;5109347;28;20018;-73
2021/01/15 10:06:38;;;;;;;;;;;;;;;-3.94;100.00;101339.09;5109268;28;19931;-75
2021/01/15 10:09:06;;;;;;;;;;;;;;;-3.91;100.00;101322.16;5110223;28;19924;-74
2021/01/15 10:11:33;;;;;;;;;;;;;;;-3.80;100.00;101321.06;5110342;28;19930;-74
2021/01/15 10:14:00;;;;;;;;;;;;;;;-3.49;100.00;101321.84;5110296;28;20897;-73
2021/01/15 10:16:27;;;;;;;;;;;;;;;-3.26;100.00;101329.44;5109529;28;19923;-74
2021/01/15 10:18:54;;;;;;;;;;;;;;;-3.40;100.00;101309.25;5106778;28;20007;-75
2021/01/15 10:21:21;;;;;;;;;;;;;;;-3.64;100.00;101286.38;5108600;28;19923;-74
2021/01/15 10:23:47;;;;;;;;;;;;;;;-3.59;100.00;101274.59;5108727;28;19984;-75
2021/01/15 10:26:35;;;;;;;;;;;;;;;-3.62;100.00;101259.59;5109352;28;19924;-72
2021/01/15 10:29:08;;;;;;;;;;;;;;;-3.56;100.00;101233.88;5108256;28;19924;-77
2021/01/15 10:31:40;;;;;;;;;;;;;;;-3.39;100.00;101244.47;5108739;28;19924;-78
2021/01/15 10:34:07;;;;;;;;;;;;;;;-3.20;100.00;101250.94;5108591;28;20326;-78
2021/01/15 10:36:33;;;;;;;;;;;;;;;-2.88;100.00;101259.53;5107999;28;19928;-78
2021/01/15 10:39:00;;;;;;;;;;;;;;;-2.80;100.00;101256.22;5109406;28;20270;-78
2021/01/15 10:41:29;;;;;;;;;;;;;;;-2.71;100.00;101249.84;5110708;28;19931;-78
2021/01/15 10:43:56;;;;;;;;;;;;;;;-2.70;100.00;101251.50;5108712;28;19927;-79
2021/01/15 10:46:28;;;;;;;;;;;;;;;-2.79;100.00;101235.94;5092495;28;19924;-80
2021/01/15 10:48:55;;;;;;;;;;;;;;;-2.67;100.00;101228.19;5110452;28;19931;-80
2021/01/15 10:51:23;;;;;;;;;;;;;;;-2.76;100.00;101214.31;5110616;28;19931;-79
2021/01/15 10:53:49;;;;;;;;;;;;;;;-2.75;100.00;101209.66;5108929;28;20415;-80
2021/01/15 10:56:15;;;;;;;;;;;;;;;-2.76;100.00;101208.84;5109778;28;20255;-80
2021/01/15 10:58:42;;;;;;;;;;;;;;;-2.78;100.00;101197.34;5110188;28;19930;-79
2021/01/15 11:01:09;;;;;;;;;;;;;;;-2.77;100.00;101190.78;5108787;28;19939;-77
2021/01/15 11:03:35;;;;;;;;;;;;;;;-2.64;100.00;101200.25;5109096;28;20370;-76
2021/01/15 11:06:03;;;;;;;;;;;;;;;-2.47;100.00;101206.16;5108430;28;19930;-76
2021/01/15 11:08:31;;;;;;;;;;;;;;;-2.41;100.00;101208.53;5109780;28;19923;-76
2021/01/15 11:10:57;;;;;;;;;;;;;;;-2.14;100.00;101211.63;5109944;28;19924;-75
2021/01/15 11:13:24;;;;;;;;;;;;;;;-2.33;100.00;101197.00;5108036;28;19924;-75
2021/01/15 11:15:50;;;;;;;;;;;;;;;-2.38;100.00;101183.34;5108535;28;19931;-78
2021/01/15 11:18:17;;;;;;;;;;;;;;;-2.43;100.00;101188.88;5110654;28;19955;-77
2021/01/15 11:20:44;;;;;;;;;;;;;;;-2.27;100.00;101193.09;5108560;28;19928;-73
2021/01/15 11:23:14;;;;;;;;;;;;;;;-2.10;100.00;101204.44;5109850;28;19923;-72
2021/01/15 11:25:43;;;;;;;;;;;;;;;-2.05;100.00;101198.09;5107693;28;19927;-74
2021/01/15 11:28:10;;;;;;;;;;;;;;;-2.08;100.00;101194.03;5107333;28;19923;-73
2021/01/15 11:30:37;;;;;;;;;;;;;;;-2.01;100.00;101186.28;5109491;28;19931;-73
2021/01/15 11:33:03;;;;;;;;;;;;;;;-1.82;100.00;101189.91;5093752;28;19935;-74
2021/01/15 11:35:39;;;;;;;;;;;;;;;-1.69;100.00;101187.56;5112291;28;19931;-73
2021/01/15 11:38:06;;;;;;;;;;;;;;;-1.65;100.00;101188.63;5113191;28;19973;-73
2021/01/15 11:40:32;;;;;;;;;;;;;;;-1.63;100.00;101184.47;5111868;28;19923;-74
2021/01/15 11:42:59;;;;;;;;;;;;;;;-1.48;100.00;101187.03;5094165;28;19934;-75
2021/01/15 11:45:25;;;;;;;;;;;;;;;-1.61;100.00;101182.28;5106429;28;20380;-72
2021/01/15 11:47:53;;;;;;;;;;;;;;;-1.68;100.00;101170.03;5111647;28;20305;-72
2021/01/15 11:50:21;;;;;;;;;;;;;;;-1.86;100.00;101169.66;5111915;28;19939;-74
2021/01/15 11:52:53;;;;;;;;;;;;;;;-1.82;100.00;101167.97;5111562;28;19931;-73
2021/01/15 11:55:20;;;;;;;;;;;;;;;-1.86;100.00;101164.19;5111552;28;19931;-72
2021/01/15 11:57:50;;;;;;;;;;;;;;;-1.73;100.00;101167.34;5093605;28;19924;-72
2021/01/15 12:00:17;;;;;;;;;;;;;;;-1.60;100.00;101177.59;5076504;28;20030;-74
2021/01/15 12:02:44;;;;;;;;;;;;;;;-1.62;100.00;101174.34;5112920;28;20366;-74
2021/01/15 12:05:11;;;;;;;;;;;;;;;-1.68;100.00;101156.31;5112316;28;19924;-72
2021/01/15 12:07:38;;;;;;;;;;;;;;;-1.58;100.00;101158.94;5111806;28;19951;-74
2021/01/15 12:10:13;;;;;;;;;;;;;;;-1.44;100.00;101155.19;5113486;28;19923;-74
2021/01/15 12:12:40;;;;;;;;;;;;;;;-1.41;100.00;101154.59;5113665;28;20018;-73
2021/01/15 12:15:07;;;;;;;;;;;;;;;-1.47;100.00;101150.28;5112703;28;19947;-72
2021/01/15 12:17:34;;;;;;;;;;;;;;;-1.36;100.00;101156.47;5112346;28;19923;-72
2021/01/15 12:20:01;;;;;;;;;;;;;;;-1.27;100.00;101149.22;5111905;28;19927;-72
2021/01/15 12:22:27;;;;;;;;;;;;;;;-1.20;100.00;101155.13;5109954;28;19924;-72
2021/01/15 12:24:54;;;;;;;;;;;;;;;-1.10;100.00;101157.72;5108281;28;19930;-72
2021/01/15 12:27:21;;;;;;;;;;;;;;;-0.98;100.00;101158.91;5110365;28;19924;-73
2021/01/15 12:29:48;;;;;;;;;;;;;;;-1.00;100.00;101160.34;5112168;28;19966;-72
2021/01/15 12:32:14;;;;;;;;;;;;;;;-0.97;100.00;101149.56;5111750;28;20324;-72
2021/01/15 12:34:41;;;;;;;;;;;;;;;-0.91;100.00;101159.34;5111618;28;19928;-72
2021/01/15 12:37:07;;;;;;;;;;;;;;;-0.95;100.00;101160.25;5127584;27;19928;-73